• Join FlightAware (Why Join?)
  • Login
  • US Flag 
12:46PM EST


 

Airport Tracker/Info


-or-


 

Live Flight TrackerFlight Track Log ✈ PDT4511 ✈ 24-Apr-2013 ✈ KPHL - KMDT

Flight Track Log - Related Links

Times and Time Zones

All times are in EDT time to prevent confusion due to time zone crossing. See the PDT4511 flight status page for this flight to view local times or setup timezone preferences in your user account.

Time Position Orientation Groundspeed Altitude Reporting Facility
EDT Latitude Longitude Course Direction KTS MPH feet Rate Location/Type
04:18PM 39.8656 -75.2761 278° West 137 158 900  Level FAA TRACON SMA TRACON (SMA)
04:18PM 39.8708 -75.2897 297° West 150 173 1,300 1,320 Climbing FAA TRACON SMA TRACON (SMA)
04:18PM 39.8772 -75.3083 294° West 146 168 1,800 1,320 Climbing FAA TRACON SMA TRACON (SMA)
04:19PM 39.8825 -75.3247 293° West 153 176 2,200 1,320 Climbing FAA TRACON SMA TRACON (SMA)
04:19PM 39.8892 -75.3450 293° West 156 180 2,700 1,140 Climbing FAA TRACON SMA TRACON (SMA)
04:19PM 39.8961 -75.3603 301° West 160 184 3,000 840 Climbing FAA TRACON SMA TRACON (SMA)
04:20PM 39.9236 -75.8218 273° West  Level FlightAware Approximate
04:20PM 39.9025 -75.3778 295° West 166 191 3,300  Level FAA TRACON SMA TRACON (SMA)
04:20PM 39.9094 -75.4011 291° West 182 209 3,600 720 Climbing FAA TRACON SMA TRACON (SMA)
04:20PM 39.9108 -75.4200 275° West 185 213 3,800 420 Climbing FAA TRACON SMA TRACON (SMA)
04:21PM 39.9321 -76.0210 273° West  Level FlightAware Approximate
04:21PM 39.9114 -75.4394 272° West 175 201 3,900  Level FAA TRACON SMA TRACON (SMA)
04:21PM 39.9128 -75.4667 274° West 185 213 4,000 300 Climbing FAA TRACON SMA TRACON (SMA)
04:21PM 39.9131 -75.4889 271° West 192 221 4,100 600 Climbing FAA TRACON SMA TRACON (SMA)
04:22PM 39.9334 -76.2205 270° West  Level FlightAware Approximate
04:22PM 39.9139 -75.5106 273° West 194 223 4,400  Level FAA TRACON SMA TRACON (SMA)
04:22PM 39.9178 -75.5369 281° West 183 211 4,600 600 Climbing FAA TRACON SMA TRACON (SMA)
04:22PM 39.9197 -75.5575 277° West 190 219 4,800 720 Climbing FAA TRACON SMA TRACON (SMA)
04:23PM 39.9484 -76.4186 278° West  Level FlightAware Approximate
04:23PM 39.9225 -75.5778 280° West 189 217 5,100  Level FAA TRACON SMA TRACON (SMA)
04:23PM 39.9253 -75.5989 280° West 188 216 5,300 720 Climbing FAA TRACON SMA TRACON (SMA)
04:23PM 39.9289 -75.6244 280° West 186 214 5,600 720 Climbing FAA TRACON SMA TRACON (SMA)
04:24PM 39.9308 -75.6447 277° West 185 213 5,800 600 Climbing FAA TRACON SMA TRACON (SMA)
04:24PM 39.9306 -75.6653 269° West 181 208 6,000 300 Climbing FAA TRACON SMA TRACON (SMA)
04:24PM 39.9339 -75.6914 279° West 200 230 6,000  Level FAA TRACON SMA TRACON (SMA)
04:25PM 39.9439 -75.7414 285° West 205 236 6,000  Level FAA TRACON SMA TRACON (SMA)
04:25PM 39.9469 -75.7639 280° West 206 237 6,000  Level FAA TRACON SMA TRACON (SMA)
04:26PM 39.9511 -75.7858 284° West 202 232 6,000  Level FAA TRACON SMA TRACON (SMA)
04:26PM 39.9558 -75.8111 284° West 202 232 6,000 300 Level FAA TRACON SMA TRACON (SMA)
04:26PM 39.9611 -75.8322 288° West 202 232 6,200 120 Climbing FAA TRACON SMA TRACON (SMA)
04:27PM 39.9669 -75.8558 288° West 201 231 6,100 -180 Descending FAA TRACON SMA TRACON (SMA)
04:27PM 39.9725 -75.8772 289° West 201 231 6,100  Level FAA TRACON SMA TRACON (SMA)
04:27PM 39.9789 -75.9033 288° West 202 232 6,100 120 Level FAA TRACON SMA TRACON (SMA)
04:28PM 39.9836 -75.9261 285° West 202 232 6,200  Climbing FAA TRACON SMA TRACON (SMA)
04:28PM 39.9878 -75.9478 284° West 202 232 6,100 -180 Descending FAA TRACON SMA TRACON (SMA)
04:28PM 39.9939 -75.9742 287° West 202 232 6,100  Level FAA TRACON SMA TRACON (SMA)
04:29PM 39.9997 -75.9964 289° West 204 235 6,100  Level FAA TRACON SMA TRACON (SMA)
04:29PM 40.0064 -76.0239 288° West 204 235 6,100  Level FAA TRACON SMA TRACON (SMA)
04:29PM 40.0114 -76.0458 287° West 204 235 6,100  Level FAA TRACON SMA TRACON (SMA)
04:30PM 40.0161 -76.0678 286° West 204 235 6,100  Level FAA TRACON SMA TRACON (SMA)
04:30PM 40.0225 -76.0894 291° West 206 237 6,100  Level FAA TRACON SMA TRACON (SMA)
04:31PM 40.0317 -76.1139 296° West 206 237 6,100  Level FAA TRACON SMA TRACON (SMA)
04:31PM 40.0369 -76.1378 286° West 206 237 6,100  Level FAA TRACON SMA TRACON (SMA)
04:31PM 40.0428 -76.1647 286° West 206 237 6,100  Level FAA TRACON SMA TRACON (SMA)
04:32PM 40.0494 -76.1864 292° West 205 236 6,100  Level FAA TRACON SMA TRACON (SMA)
04:32PM 40.0600 -76.2058 305° West 202 232 6,100  Level FAA TRACON SMA TRACON (SMA)
04:32PM 40.0675 -76.2142 320° Northwest 232 267 6,100  Level FAA TRACON SMA TRACON (SMA)
04:34PM 40.0799 -76.2848 283° West  Level FlightAware Approximate
04:41PM 40.1833 -76.7500 285° West  Level FlightAware Approximate
04:42PM 40.1932 -76.7626 285° West  Level Estimated
04:43PM 40.1932 -76.7626 285° West  Level Estimated